createdAt,value
2017-09-29T00:02:02.086Z,20.70
2017-09-29T00:04:29.575Z,23.50
2017-09-29T00:06:57.078Z,26.20
2017-09-29T00:09:24.562Z,21.40
2017-09-29T00:11:52.041Z,19.27
2017-09-29T00:14:19.519Z,21.90
2017-09-29T00:16:47.016Z,22.77
2017-09-29T00:19:14.500Z,22.50
2017-09-29T00:21:41.984Z,26.70
2017-09-29T00:24:09.474Z,24.23
2017-09-29T00:26:37.727Z,21.27
2017-09-29T00:29:05.219Z,23.70
2017-09-29T00:31:33.465Z,20.10
2017-09-29T00:34:00.959Z,21.87
2017-09-29T00:36:29.205Z,21.30
2017-09-29T00:38:56.712Z,18.10
2017-09-29T00:41:24.203Z,22.53
2017-09-29T00:43:51.700Z,22.70
2017-09-29T00:46:20.137Z,20.83
2017-09-29T00:48:47.629Z,18.30
2017-09-29T00:51:15.350Z,17.60
2017-09-29T00:53:42.841Z,26.70
2017-09-29T00:56:10.512Z,17.83
2017-09-29T00:58:38.090Z,23.73
2017-09-29T01:01:06.478Z,17.60
2017-09-29T01:03:34.726Z,18.37
2017-09-29T01:06:02.270Z,17.37
2017-09-29T01:08:29.769Z,19.07
2017-09-29T01:10:58.013Z,23.63
2017-09-29T01:13:25.493Z,18.70
2017-09-29T01:15:53.733Z,20.13
2017-09-29T01:18:21.223Z,19.40
2017-09-29T01:20:48.700Z,19.47
2017-09-29T01:23:16.954Z,17.23
2017-09-29T01:25:44.435Z,19.37
2017-09-29T01:28:13.394Z,16.37
2017-09-29T01:30:40.892Z,17.50
2017-09-29T01:33:08.386Z,17.10
2017-09-29T01:35:35.870Z,24.57
2017-09-29T01:38:03.355Z,27.07
2017-09-29T01:40:31.607Z,25.97
2017-09-29T01:42:59.105Z,22.60
2017-09-29T01:45:27.349Z,22.83
2017-09-29T01:47:54.836Z,18.00
2017-09-29T01:50:23.100Z,19.80
2017-09-29T01:52:51.357Z,22.40
2017-09-29T01:55:18.851Z,20.40
2017-09-29T01:57:47.117Z,20.63
2017-09-29T02:00:15.368Z,26.00
2017-09-29T02:02:42.865Z,29.13
2017-09-29T02:05:11.116Z,28.77
2017-09-29T02:07:38.600Z,21.13
2017-09-29T02:10:06.841Z,19.70
2017-09-29T02:12:34.326Z,30.07
2017-09-29T02:15:02.570Z,27.37
2017-09-29T02:17:30.054Z,22.40
2017-09-29T02:19:57.536Z,28.53
2017-09-29T02:22:25.023Z,23.83
2017-09-29T02:24:52.497Z,26.80
2017-09-29T02:27:19.978Z,29.27
2017-09-29T02:29:47.476Z,24.80
2017-09-29T02:32:14.967Z,31.13
2017-09-29T02:34:42.456Z,20.97
2017-09-29T02:37:10.722Z,22.40
2017-09-29T02:39:38.217Z,25.67
2017-09-29T02:42:06.466Z,30.07
2017-09-29T02:44:35.462Z,27.37
2017-09-29T02:47:02.947Z,23.83
2017-09-29T02:49:31.194Z,24.97
2017-09-29T02:51:58.685Z,26.60
2017-09-29T02:54:26.942Z,29.00
2017-09-29T02:56:56.186Z,21.73
2017-09-29T02:59:25.693Z,21.37
2017-09-29T03:01:54.757Z,21.60
2017-09-29T03:04:24.104Z,23.30
2017-09-29T03:06:51.595Z,22.97
2017-09-29T03:09:19.090Z,20.23
2017-09-29T03:11:47.348Z,25.63
2017-09-29T03:14:15.604Z,20.40
2017-09-29T03:16:43.102Z,33.83
2017-09-29T03:19:11.363Z,20.77
2017-09-29T03:21:39.637Z,22.03
2017-09-29T03:24:07.891Z,23.60
2017-09-29T03:26:35.384Z,24.17
2017-09-29T03:29:03.634Z,25.70
2017-09-29T03:31:31.123Z,25.27
2017-09-29T03:33:59.373Z,23.83
2017-09-29T03:36:26.859Z,35.30
2017-09-29T03:38:55.111Z,22.07
2017-09-29T03:41:22.588Z,21.07
2017-09-29T03:43:50.843Z,26.60
2017-09-29T03:46:18.335Z,20.20
2017-09-29T03:48:46.592Z,30.20
2017-09-29T03:51:17.370Z,30.00
2017-09-29T03:53:45.954Z,22.30
2017-09-29T03:56:15.152Z,27.27
2017-09-29T03:58:45.079Z,32.00
2017-09-29T04:01:12.567Z,30.80
2017-09-29T04:03:40.059Z,27.60
2017-09-29T04:06:08.307Z,22.13
2017-09-29T04:08:37.303Z,24.33
2017-09-29T04:11:04.787Z,34.07
2017-09-29T04:13:33.048Z,25.30
2017-09-29T04:16:00.550Z,24.90
2017-09-29T04:18:28.045Z,27.27
2017-09-29T04:20:55.535Z,25.47
2017-09-29T04:23:23.790Z,41.07
2017-09-29T04:25:51.292Z,26.77
2017-09-29T04:28:19.543Z,23.03
2017-09-29T04:30:47.030Z,21.10
2017-09-29T04:33:14.530Z,26.43
2017-09-29T04:35:42.036Z,18.23
2017-09-29T04:38:10.290Z,25.53
2017-09-29T04:40:37.831Z,20.30
2017-09-29T04:43:05.312Z,21.87
2017-09-29T04:45:32.804Z,20.60
2017-09-29T04:48:00.292Z,23.03
2017-09-29T04:50:27.779Z,22.70
2017-09-29T04:52:55.286Z,17.97
2017-09-29T04:55:22.771Z,22.93
2017-09-29T04:57:50.250Z,24.33
2017-09-29T05:00:17.734Z,26.70
2017-09-29T05:02:45.981Z,27.33
2017-09-29T05:05:13.468Z,24.30
2017-09-29T05:07:41.729Z,25.00
2017-09-29T05:10:09.220Z,21.87
2017-09-29T05:12:36.709Z,23.13
2017-09-29T05:15:04.207Z,23.47
2017-09-29T05:17:31.695Z,20.93
2017-09-29T05:19:59.994Z,20.23
2017-09-29T05:22:27.683Z,35.10
2017-09-29T05:24:55.227Z,25.03
2017-09-29T05:27:24.580Z,31.03
2017-09-29T05:29:52.056Z,33.43
2017-09-29T05:32:20.306Z,33.03
2017-09-29T05:34:47.787Z,37.27
2017-09-29T05:37:16.038Z,30.07
2017-09-29T05:39:43.528Z,33.30
2017-09-29T05:42:11.778Z,29.40
2017-09-29T05:44:39.262Z,30.50
2017-09-29T05:47:07.533Z,29.67
2017-09-29T05:49:35.798Z,36.77
2017-09-29T05:52:03.278Z,21.97
2017-09-29T05:54:31.536Z,30.23
2017-09-29T05:56:59.041Z,23.47
2017-09-29T05:59:26.530Z,36.57
2017-09-29T06:01:54.020Z,30.10
2017-09-29T06:04:22.270Z,28.03
2017-09-29T06:06:49.770Z,30.90
2017-09-29T06:09:18.027Z,33.50
2017-09-29T06:11:45.509Z,27.93
2017-09-29T06:14:13.776Z,29.83
2017-09-29T06:16:42.021Z,31.53
2017-09-29T06:19:09.505Z,47.83
2017-09-29T06:21:37.780Z,30.80
2017-09-29T06:24:06.039Z,41.23
2017-09-29T06:26:33.535Z,40.10
2017-09-29T06:29:01.782Z,33.90
2017-09-29T06:31:29.260Z,35.33
2017-09-29T06:33:57.517Z,30.37
2017-09-29T06:36:25.008Z,30.00
2017-09-29T06:38:53.254Z,29.07
2017-09-29T06:41:20.740Z,22.93
2017-09-29T06:43:48.987Z,28.33
2017-09-29T06:46:16.470Z,30.63
2017-09-29T06:48:44.722Z,44.73
2017-09-29T06:51:13.728Z,28.97
2017-09-29T06:53:41.977Z,27.80
2017-09-29T06:56:09.470Z,24.23
2017-09-29T06:58:37.740Z,26.20
2017-09-29T07:01:05.218Z,34.03
2017-09-29T07:03:33.469Z,28.70
2017-09-29T07:06:00.960Z,29.67
2017-09-29T07:08:28.458Z,34.53
2017-09-29T07:10:55.957Z,29.80
2017-09-29T07:13:24.206Z,26.47
2017-09-29T07:15:51.695Z,33.53
2017-09-29T07:18:19.965Z,31.00
2017-09-29T07:20:47.449Z,34.93
2017-09-29T07:23:15.719Z,37.60
2017-09-29T07:25:48.641Z,38.23
2017-09-29T07:28:17.035Z,27.10
2017-09-29T07:30:45.505Z,28.47
2017-09-29T07:33:12.992Z,37.93
2017-09-29T07:35:40.483Z,33.67
2017-09-29T07:38:08.751Z,39.90
2017-09-29T07:40:36.997Z,41.57
2017-09-29T07:43:04.485Z,31.50
2017-09-29T07:45:33.829Z,26.10
2017-09-29T07:48:01.314Z,43.30
2017-09-29T07:50:28.802Z,59.40
2017-09-29T07:52:57.799Z,66.63
2017-09-29T07:55:25.278Z,60.00
2017-09-29T07:57:53.536Z,92.97
2017-09-29T08:00:21.781Z,61.70
2017-09-29T08:02:49.285Z,56.70
2017-09-29T08:05:17.624Z,48.97
2017-09-29T08:07:45.116Z,45.77
2017-09-29T08:10:13.371Z,46.13
2017-09-29T08:12:40.855Z,37.30
2017-09-29T08:15:09.105Z,45.90
2017-09-29T08:17:36.593Z,48.33
2017-09-29T08:20:04.904Z,43.50
2017-09-29T08:22:32.400Z,48.27
2017-09-29T08:24:59.877Z,52.13
2017-09-29T08:27:28.126Z,46.07
2017-09-29T08:29:55.624Z,47.80
2017-09-29T08:32:23.891Z,52.27
2017-09-29T08:34:52.137Z,46.80
2017-09-29T08:37:19.631Z,50.53
2017-09-29T08:39:47.889Z,46.43
2017-09-29T08:42:15.384Z,40.33
2017-09-29T08:44:42.871Z,38.30
2017-09-29T08:47:10.373Z,34.37
2017-09-29T08:49:37.863Z,38.93
2017-09-29T08:52:05.350Z,37.00
2017-09-29T08:54:32.833Z,35.30
2017-09-29T08:57:00.319Z,44.13
2017-09-29T08:59:28.582Z,45.03
2017-09-29T09:01:56.062Z,37.67
2017-09-29T09:04:24.326Z,654.67
2017-09-29T09:06:52.574Z,152.10
2017-09-29T09:09:20.061Z,57.10
2017-09-29T09:11:48.330Z,57.90
2017-09-29T09:14:15.823Z,44.47
2017-09-29T09:16:43.299Z,39.90
2017-09-29T09:19:10.790Z,44.70
2017-09-29T09:21:38.275Z,38.17
2017-09-29T09:24:06.534Z,38.50
2017-09-29T09:26:34.035Z,38.00
2017-09-29T09:29:01.526Z,63.50
2017-09-29T09:31:29.021Z,54.07
2017-09-29T09:33:56.515Z,48.27
2017-09-29T09:36:24.002Z,43.07
2017-09-29T09:38:51.486Z,40.17
2017-09-29T09:41:18.978Z,34.97
2017-09-29T09:43:47.221Z,37.90
2017-09-29T09:46:14.699Z,64.80
2017-09-29T09:48:42.183Z,50.93
2017-09-29T09:51:09.672Z,30.50
2017-09-29T09:53:37.159Z,43.17
2017-09-29T09:56:04.653Z,29.83
2017-09-29T09:58:32.920Z,35.33
2017-09-29T10:01:01.179Z,23.60
2017-09-29T10:03:28.679Z,34.00
2017-09-29T10:05:56.182Z,40.87
2017-09-29T10:08:23.673Z,36.60
2017-09-29T10:10:51.937Z,30.20
2017-09-29T10:13:19.418Z,29.63
2017-09-29T10:15:47.667Z,32.90
2017-09-29T10:18:15.158Z,32.90
2017-09-29T10:20:43.426Z,31.97
2017-09-29T10:23:10.966Z,25.63
2017-09-29T10:25:42.189Z,33.30
2017-09-29T10:28:09.684Z,27.43
2017-09-29T10:30:37.934Z,25.63
2017-09-29T10:33:05.428Z,25.20
2017-09-29T10:35:33.699Z,21.87
2017-09-29T10:38:01.960Z,37.17
2017-09-29T10:40:29.446Z,24.93
2017-09-29T10:42:57.709Z,20.27
2017-09-29T10:45:25.969Z,26.73
2017-09-29T10:47:53.460Z,26.70
2017-09-29T10:50:21.723Z,28.63
2017-09-29T10:52:49.973Z,37.70
2017-09-29T10:55:17.474Z,26.77
2017-09-29T10:57:45.734Z,24.13
2017-09-29T11:00:13.986Z,23.77
2017-09-29T11:02:41.480Z,26.30
2017-09-29T11:05:09.738Z,31.80
2017-09-29T11:07:37.222Z,22.23
2017-09-29T11:10:05.469Z,26.80
2017-09-29T11:12:33.002Z,26.30
2017-09-29T11:15:00.500Z,26.20
2017-09-29T11:17:28.754Z,27.80
2017-09-29T11:19:56.238Z,25.63
2017-09-29T11:22:24.496Z,28.23
2017-09-29T11:24:51.994Z,25.17
2017-09-29T11:27:20.250Z,22.60
2017-09-29T11:29:48.511Z,21.87
2017-09-29T11:32:16.037Z,30.77
2017-09-29T11:34:43.538Z,30.93
2017-09-29T11:37:11.036Z,21.87
2017-09-29T11:39:38.518Z,22.33
2017-09-29T11:42:06.005Z,27.30
2017-09-29T11:44:33.504Z,16.70
2017-09-29T11:47:01.771Z,22.37
2017-09-29T11:49:30.034Z,22.20
2017-09-29T11:51:57.541Z,20.20
2017-09-29T11:54:25.039Z,21.27
2017-09-29T11:56:52.531Z,18.57
2017-09-29T11:59:20.787Z,21.67
2017-09-29T12:01:48.274Z,23.13
2017-09-29T12:04:16.523Z,20.67
2017-09-29T12:06:44.002Z,17.50
2017-09-29T12:09:12.245Z,23.37
2017-09-29T12:11:39.744Z,24.60
2017-09-29T12:14:07.994Z,26.13
2017-09-29T12:16:36.997Z,15.83
2017-09-29T12:19:05.254Z,25.93
2017-09-29T12:21:32.740Z,20.07
2017-09-29T12:24:00.998Z,19.03
2017-09-29T12:26:29.339Z,19.00
2017-09-29T12:28:56.832Z,16.60
2017-09-29T12:31:25.817Z,15.90
2017-09-29T12:33:53.319Z,17.83
2017-09-29T12:36:21.570Z,23.03
2017-09-29T12:38:49.843Z,20.77
2017-09-29T12:41:17.332Z,20.00
2017-09-29T12:43:45.599Z,18.27
2017-09-29T12:46:13.846Z,15.20
2017-09-29T12:48:41.342Z,19.60
2017-09-29T12:51:09.609Z,17.77
2017-09-29T12:53:37.876Z,20.97
2017-09-29T12:56:05.375Z,17.47
2017-09-29T12:58:32.895Z,22.63
2017-09-29T13:01:01.148Z,19.83
2017-09-29T13:03:28.640Z,22.03
2017-09-29T13:05:56.894Z,16.30
2017-09-29T13:08:24.381Z,15.60
2017-09-29T13:10:52.633Z,20.37
2017-09-29T13:13:20.118Z,17.97
2017-09-29T13:15:49.242Z,16.10
2017-09-29T13:18:17.637Z,17.23
2017-09-29T13:20:45.817Z,14.93
2017-09-29T13:23:14.720Z,19.20
2017-09-29T13:25:42.267Z,16.70
2017-09-29T13:28:10.122Z,15.73
2017-09-29T13:30:38.092Z,15.10
2017-09-29T13:33:06.642Z,14.03
2017-09-29T13:35:35.117Z,14.30
2017-09-29T13:38:04.177Z,14.07
2017-09-29T13:40:32.228Z,313.20
2017-09-29T13:43:00.561Z,635.50
2017-09-29T13:45:29.498Z,421.07
2017-09-29T13:47:57.560Z,399.37
2017-09-29T13:50:25.689Z,296.43
2017-09-29T13:52:53.349Z,168.60
2017-09-29T13:55:21.685Z,59.27
2017-09-29T13:57:49.378Z,62.97
2017-09-29T14:00:17.191Z,24.13
2017-09-29T14:02:45.555Z,25.53
2017-09-29T14:05:14.017Z,13.60
2017-09-29T14:07:42.107Z,59.07
2017-09-29T14:10:11.014Z,42.00
2017-09-29T14:12:39.473Z,19.40
2017-09-29T14:15:08.843Z,36.57
2017-09-29T14:17:36.353Z,24.53
2017-09-29T14:20:05.076Z,31.43
2017-09-29T14:22:32.809Z,35.73
2017-09-29T14:25:01.674Z,28.43
2017-09-29T14:27:29.600Z,216.63
2017-09-29T14:29:57.242Z,183.40
2017-09-29T14:32:26.545Z,347.57
2017-09-29T14:34:55.672Z,189.73
2017-09-29T14:37:23.404Z,161.80
2017-09-29T14:39:52.305Z,109.87
2017-09-29T14:42:19.809Z,111.47
2017-09-29T14:44:48.228Z,79.63
2017-09-29T14:47:16.874Z,75.50
2017-09-29T14:49:45.131Z,44.53
2017-09-29T14:52:13.718Z,56.87
2017-09-29T14:54:41.723Z,19.60
2017-09-29T14:57:09.545Z,35.93
2017-09-29T14:59:37.271Z,49.73
2017-09-29T15:02:05.933Z,25.07
2017-09-29T15:04:33.686Z,52.83
2017-09-29T15:07:02.075Z,54.77
2017-09-29T15:09:30.030Z,45.47
2017-09-29T15:11:57.759Z,313.17
2017-09-29T15:14:25.825Z,79.50
2017-09-29T15:16:54.556Z,169.33
2017-09-29T15:19:23.538Z,203.53
2017-09-29T15:21:51.705Z,20.53
2017-09-29T15:24:19.573Z,129.13
2017-09-29T15:26:47.565Z,125.30
2017-09-29T15:29:16.468Z,84.77
2017-09-29T15:31:44.940Z,96.23
2017-09-29T15:34:13.328Z,103.23
2017-09-29T15:36:42.339Z,19.40
2017-09-29T15:39:10.774Z,44.60
2017-09-29T15:41:38.949Z,36.63
2017-09-29T15:44:06.923Z,26.07
2017-09-29T15:46:35.464Z,80.80
2017-09-29T15:49:04.098Z,14.20
2017-09-29T15:51:32.025Z,62.50
2017-09-29T15:54:00.548Z,50.47
2017-09-29T15:56:28.681Z,45.33
2017-09-29T15:58:57.191Z,73.47
2017-09-29T16:01:24.686Z,55.33
2017-09-29T16:03:52.301Z,36.17
2017-09-29T16:06:19.956Z,25.50
2017-09-29T16:08:48.256Z,75.10
2017-09-29T16:11:15.855Z,439.60
2017-09-29T16:13:43.406Z,448.90
2017-09-29T16:16:11.552Z,22.63
2017-09-29T16:18:39.414Z,27.53
2017-09-29T16:21:07.628Z,393.70
2017-09-29T16:23:35.508Z,174.83
2017-09-29T16:26:03.482Z,45.73
2017-09-29T16:28:33.278Z,17.13
2017-09-29T16:31:01.012Z,284.10
2017-09-29T16:33:28.551Z,26.47
2017-09-29T16:35:56.900Z,59.17
2017-09-29T16:38:25.232Z,35.27
2017-09-29T16:40:52.896Z,96.90
2017-09-29T16:43:20.499Z,73.80
2017-09-29T16:45:48.600Z,30.30
2017-09-29T16:48:17.214Z,30.30
2017-09-29T16:50:46.953Z,33.90
2017-09-29T16:53:14.461Z,18.60
2017-09-29T16:55:42.865Z,44.57
2017-09-29T16:58:10.533Z,88.23
2017-09-29T17:00:38.559Z,159.10
2017-09-29T17:03:06.822Z,237.97
2017-09-29T17:05:34.573Z,151.13
2017-09-29T17:08:02.608Z,43.47
2017-09-29T17:10:30.296Z,242.93
2017-09-29T17:12:57.944Z,387.93
2017-09-29T17:15:25.973Z,501.67
2017-09-29T17:17:54.226Z,306.50
2017-09-29T17:20:21.719Z,392.73
2017-09-29T17:22:49.976Z,494.90
2017-09-29T17:25:17.466Z,243.17
2017-09-29T17:27:45.756Z,449.23
2017-09-29T17:30:13.382Z,417.33
2017-09-29T17:32:41.637Z,403.10
2017-09-29T17:35:09.138Z,289.30
2017-09-29T17:37:37.392Z,244.07
2017-09-29T17:40:05.659Z,119.57
2017-09-29T17:42:33.142Z,255.10
2017-09-29T17:45:01.390Z,235.03
2017-09-29T17:47:28.875Z,53.50
2017-09-29T17:49:57.129Z,84.77
2017-09-29T17:52:24.629Z,357.80
2017-09-29T17:54:52.132Z,553.63
2017-09-29T17:57:19.631Z,473.80
2017-09-29T17:59:47.943Z,112.53
2017-09-29T18:02:15.455Z,156.67
2017-09-29T18:04:42.938Z,38.33
2017-09-29T18:07:11.241Z,109.50
2017-09-29T18:09:38.721Z,223.93
2017-09-29T18:12:06.210Z,45.63
2017-09-29T18:14:34.502Z,53.93
2017-09-29T18:17:02.004Z,147.63
2017-09-29T18:19:29.493Z,31.53
2017-09-29T18:21:57.001Z,119.53
2017-09-29T18:24:24.526Z,344.43
2017-09-29T18:26:52.858Z,213.07
2017-09-29T18:29:20.362Z,49.57
2017-09-29T18:31:48.642Z,309.40
2017-09-29T18:34:17.685Z,211.83
2017-09-29T18:36:45.213Z,263.97
2017-09-29T18:39:13.506Z,46.57
2017-09-29T18:41:42.998Z,48.50
2017-09-29T18:44:11.275Z,208.30
2017-09-29T18:46:42.078Z,91.77
2017-09-29T18:49:09.585Z,32.77
2017-09-29T18:51:37.074Z,45.10
2017-09-29T18:54:04.555Z,29.90
2017-09-29T18:56:32.033Z,39.67
2017-09-29T18:59:00.281Z,49.53
2017-09-29T19:01:27.765Z,28.60
2017-09-29T19:03:55.246Z,30.20
2017-09-29T19:06:23.504Z,34.83
2017-09-29T19:08:51.005Z,462.23
2017-09-29T19:11:18.502Z,92.53
2017-09-29T19:13:46.001Z,25.03
2017-09-29T19:16:14.253Z,27.50
2017-09-29T19:18:41.743Z,48.83
2017-09-29T19:21:10.005Z,29.20
2017-09-29T19:23:38.268Z,35.77
2017-09-29T19:26:05.813Z,31.03
2017-09-29T19:28:33.308Z,27.23
2017-09-29T19:33:34.414Z,27.60
2017-09-29T19:36:01.895Z,20.93
2017-09-29T19:38:29.397Z,32.53
2017-09-29T19:40:56.874Z,24.83
2017-09-29T19:43:24.353Z,28.57
2017-09-29T19:45:51.834Z,28.97
2017-09-29T19:48:19.313Z,26.67
2017-09-29T19:50:47.572Z,31.13
2017-09-29T19:53:15.058Z,21.73
2017-09-29T19:55:43.316Z,31.37
2017-09-29T19:58:12.306Z,24.17
2017-09-29T20:00:39.803Z,41.83
2017-09-29T20:03:07.318Z,27.67
2017-09-29T20:05:34.816Z,26.13
2017-09-29T20:08:02.293Z,26.00
2017-09-29T20:10:29.781Z,27.20
2017-09-29T20:12:57.257Z,26.10
2017-09-29T20:15:24.733Z,24.33
2017-09-29T20:17:52.986Z,36.67
2017-09-29T20:20:20.475Z,26.77
2017-09-29T20:22:48.871Z,31.00
2017-09-29T20:25:16.368Z,35.83
2017-09-29T20:27:43.858Z,34.13
2017-09-29T20:30:11.337Z,37.80
2017-09-29T20:32:39.606Z,35.13
2017-09-29T20:35:07.859Z,32.60
2017-09-29T20:37:35.342Z,27.13
2017-09-29T20:40:03.581Z,31.83
2017-09-29T20:42:31.087Z,35.40
2017-09-29T20:44:59.331Z,49.17
2017-09-29T20:47:26.822Z,33.60
2017-09-29T20:49:55.084Z,28.63
2017-09-29T20:52:23.347Z,43.07
2017-09-29T20:54:50.840Z,46.63
2017-09-29T20:57:18.331Z,32.40
2017-09-29T20:59:45.819Z,34.40
2017-09-29T21:02:13.307Z,32.73
2017-09-29T21:04:41.557Z,24.30
2017-09-29T21:07:09.051Z,39.50
2017-09-29T21:09:36.552Z,35.57
2017-09-29T21:12:04.039Z,26.83
2017-09-29T21:14:31.513Z,30.33
2017-09-29T21:16:59.832Z,25.13
2017-09-29T21:19:27.319Z,28.33
2017-09-29T21:21:54.821Z,32.57
2017-09-29T21:24:23.084Z,33.23
2017-09-29T21:26:50.575Z,32.50
2017-09-29T21:29:18.079Z,25.07
2017-09-29T21:31:45.570Z,28.03
2017-09-29T21:34:13.814Z,29.10
2017-09-29T21:36:41.318Z,28.60
2017-09-29T21:39:09.575Z,30.80
2017-09-29T21:41:37.895Z,28.67
2017-09-29T21:44:05.381Z,27.77
2017-09-29T21:46:32.875Z,29.67
2017-09-29T21:49:01.126Z,29.97
2017-09-29T21:51:28.604Z,32.17
2017-09-29T21:53:56.088Z,30.67
2017-09-29T21:56:24.329Z,25.27
2017-09-29T21:58:51.819Z,23.87
2017-09-29T22:01:20.067Z,27.27
2017-09-29T22:03:47.558Z,20.73
2017-09-29T22:06:15.831Z,36.97
2017-09-29T22:08:44.085Z,27.50
2017-09-29T22:11:11.566Z,26.70
2017-09-29T22:13:39.821Z,29.70
2017-09-29T22:16:07.314Z,29.13
2017-09-29T22:18:34.799Z,19.50
2017-09-29T22:21:02.288Z,25.57
2017-09-29T22:23:29.771Z,28.60
2017-09-29T22:25:58.017Z,24.70
2017-09-29T22:28:25.516Z,26.40
2017-09-29T22:30:53.779Z,19.53
2017-09-29T22:33:22.038Z,34.43
2017-09-29T22:35:49.519Z,27.00
2017-09-29T22:38:17.775Z,28.50
2017-09-29T22:40:45.255Z,21.77
2017-09-29T22:43:13.511Z,25.70
2017-09-29T22:45:41.004Z,22.17
2017-09-29T22:48:09.255Z,22.57
2017-09-29T22:50:36.734Z,22.40
2017-09-29T22:53:04.992Z,29.50
2017-09-29T22:55:33.990Z,27.40
2017-09-29T22:58:01.482Z,28.90
2017-09-29T23:00:28.965Z,24.47
2017-09-29T23:02:56.451Z,25.47
2017-09-29T23:05:23.925Z,28.97
2017-09-29T23:07:51.421Z,21.80
2017-09-29T23:10:18.897Z,21.80
2017-09-29T23:12:46.388Z,29.40
2017-09-29T23:15:13.888Z,27.30
2017-09-29T23:17:41.384Z,24.73
2017-09-29T23:20:08.889Z,33.63
2017-09-29T23:22:37.149Z,26.50
2017-09-29T23:25:04.648Z,23.33
2017-09-29T23:27:32.133Z,30.40
2017-09-29T23:29:59.615Z,19.77
2017-09-29T23:32:27.100Z,25.70
2017-09-29T23:34:55.350Z,31.17
2017-09-29T23:37:22.834Z,27.33
2017-09-29T23:39:51.082Z,27.43
2017-09-29T23:42:18.572Z,23.10
2017-09-29T23:44:46.824Z,25.87
2017-09-29T23:47:14.300Z,23.57
2017-09-29T23:49:41.783Z,24.27
2017-09-29T23:52:10.044Z,21.20
2017-09-29T23:54:38.299Z,24.67
2017-09-29T23:57:05.790Z,25.43
2017-09-29T23:59:34.047Z,30.70
